createdAt,value
2019-06-01T00:01:19.655Z,63.00
2019-06-01T00:02:57.603Z,63.00
2019-06-01T00:04:33.192Z,63.50
2019-06-01T00:06:09.747Z,63.60
2019-06-01T00:07:46.979Z,64.00
2019-06-01T00:09:23.378Z,64.50
2019-06-01T00:10:58.890Z,64.30
2019-06-01T00:12:35.181Z,64.70
2019-06-01T00:14:10.766Z,65.00
2019-06-01T00:15:48.266Z,65.20
2019-06-01T00:17:23.871Z,65.10
2019-06-01T00:19:00.170Z,65.20
2019-06-01T00:20:35.684Z,65.60
2019-06-01T00:22:11.996Z,65.70
2019-06-01T00:23:48.675Z,65.50
2019-06-01T00:25:25.103Z,65.60
2019-06-01T00:27:00.621Z,65.70
2019-06-01T00:28:37.001Z,65.80
2019-06-01T00:30:26.121Z,66.10
2019-06-01T00:31:52.118Z,66.00
2019-06-01T00:33:27.821Z,66.20
2019-06-01T00:35:04.391Z,66.30
2019-06-01T00:36:41.483Z,66.50
2019-06-01T00:38:17.892Z,66.80
2019-06-01T00:39:53.444Z,66.70
2019-06-01T00:41:29.838Z,66.90
2019-06-01T00:43:05.349Z,67.70
2019-06-01T00:44:42.188Z,67.10
2019-06-01T00:46:18.036Z,67.40
2019-06-01T00:47:55.410Z,67.30
2019-06-01T00:49:30.928Z,67.30
2019-06-01T00:51:07.490Z,67.40
2019-06-01T00:52:43.041Z,67.40
2019-06-01T00:54:19.295Z,67.50
2019-06-01T00:55:54.807Z,67.50
2019-06-01T00:57:31.107Z,67.70
2019-06-01T00:59:06.632Z,67.40
2019-06-01T01:00:45.572Z,67.40
2019-06-01T01:02:20.746Z,67.60
2019-06-01T01:03:57.045Z,67.80
2019-06-01T01:05:32.953Z,67.60
2019-06-01T01:07:09.394Z,67.80
2019-06-01T01:08:45.218Z,68.20
2019-06-01T01:10:21.753Z,67.90
2019-06-01T01:11:57.271Z,67.70
2019-06-01T01:13:33.571Z,67.70
2019-06-01T01:15:09.382Z,67.80
2019-06-01T01:16:45.738Z,67.60
2019-06-01T01:18:21.258Z,68.00
2019-06-01T01:19:57.614Z,68.00
2019-06-01T01:21:33.297Z,68.10
2019-06-01T01:23:10.727Z,68.20
2019-06-01T01:24:46.357Z,68.20
2019-06-01T01:26:22.846Z,68.00
2019-06-01T01:27:58.470Z,68.10
2019-06-01T01:29:35.738Z,68.40
2019-06-01T01:31:14.220Z,68.00
2019-06-01T01:32:49.692Z,68.00
2019-06-01T01:34:25.213Z,67.90
2019-06-01T01:36:01.514Z,68.00
2019-06-01T01:37:37.026Z,67.90
2019-06-01T01:39:13.324Z,68.40
2019-06-01T01:40:49.962Z,68.30
2019-06-01T01:42:26.422Z,68.30
2019-06-01T01:44:01.957Z,68.60
2019-06-01T01:45:38.242Z,68.60
2019-06-01T01:47:14.419Z,68.70
2019-06-01T01:48:52.086Z,68.60
2019-06-01T01:50:29.890Z,68.60
2019-06-01T01:52:06.227Z,69.40
2019-06-01T01:53:41.750Z,68.70
2019-06-01T01:55:18.491Z,68.60
2019-06-01T01:56:56.139Z,68.50
2019-06-01T01:58:32.800Z,68.60
2019-06-01T02:00:12.462Z,68.80
2019-06-01T02:01:48.764Z,68.90
2019-06-01T02:03:25.290Z,68.90
2019-06-01T02:05:02.198Z,69.00
2019-06-01T02:06:37.793Z,68.90
2019-06-01T02:08:14.463Z,69.90
2019-06-01T02:09:51.083Z,68.90
2019-06-01T02:11:28.483Z,68.80
2019-06-01T02:13:04.269Z,69.00
2019-06-01T02:14:40.594Z,68.80
2019-06-01T02:16:17.350Z,68.90
2019-06-01T02:17:53.963Z,69.10
2019-06-01T02:19:29.520Z,69.10
2019-06-01T02:21:05.886Z,69.20
2019-06-01T02:22:41.407Z,69.90
2019-06-01T02:24:18.677Z,69.00
2019-06-01T02:25:54.870Z,69.10
2019-06-01T02:27:31.218Z,69.10
2019-06-01T02:29:06.754Z,69.20
2019-06-01T02:30:43.071Z,69.10
2019-06-01T02:32:18.576Z,69.00
2019-06-01T02:33:56.315Z,68.80
2019-06-01T02:35:32.170Z,68.80
2019-06-01T02:37:08.506Z,69.20
2019-06-01T02:38:44.018Z,69.10
2019-06-01T02:40:21.404Z,69.20
2019-06-01T02:41:56.930Z,69.40
2019-06-01T02:43:33.556Z,69.30
2019-06-01T02:45:13.733Z,69.40
2019-06-01T02:46:50.288Z,69.40
2019-06-01T02:48:25.818Z,69.20
2019-06-01T02:50:04.295Z,69.30
2019-06-01T02:51:39.566Z,69.20
2019-06-01T02:53:15.875Z,69.20
2019-06-01T02:54:51.477Z,69.20
2019-06-01T02:56:27.800Z,69.10
2019-06-01T02:58:04.364Z,69.10
2019-06-01T02:59:40.785Z,69.20
2019-06-01T03:01:34.954Z,69.20
2019-06-01T03:03:11.508Z,69.00
2019-06-01T03:04:48.343Z,69.10
2019-06-01T03:06:25.197Z,69.00
2019-06-01T03:08:01.387Z,69.10
2019-06-01T03:09:39.473Z,68.90
2019-06-01T03:11:17.740Z,68.80
2019-06-01T03:12:58.084Z,68.90
2019-06-01T03:14:35.290Z,68.90
2019-06-01T03:16:15.364Z,68.90
2019-06-01T03:17:52.596Z,68.80
2019-06-01T03:19:31.028Z,68.80
2019-06-01T03:21:08.150Z,68.70
2019-06-01T03:22:44.680Z,68.00
2019-06-01T03:24:25.689Z,68.80
2019-06-01T03:26:04.274Z,69.00
2019-06-01T03:27:42.410Z,68.90
2019-06-01T03:29:21.737Z,68.80
2019-06-01T03:30:57.443Z,69.10
2019-06-01T03:32:37.077Z,69.00
2019-06-01T03:34:12.152Z,69.40
2019-06-01T03:35:49.676Z,69.30
2019-06-01T03:37:25.196Z,69.30
2019-06-01T03:39:02.104Z,69.80
2019-06-01T03:40:39.188Z,69.50
2019-06-01T03:42:15.451Z,69.70
2019-06-01T03:43:52.203Z,69.70
2019-06-01T03:45:28.646Z,69.80
2019-06-01T03:47:04.188Z,69.60
2019-06-01T03:48:41.742Z,69.70
2019-06-01T03:50:18.494Z,70.00
2019-06-01T03:51:54.798Z,70.00
2019-06-01T03:53:30.346Z,70.00
2019-06-01T03:55:08.454Z,69.90
2019-06-01T03:56:43.986Z,69.80
2019-06-01T03:58:20.390Z,69.70
2019-06-01T03:59:55.912Z,69.60
2019-06-01T04:01:32.222Z,69.70
2019-06-01T04:03:09.119Z,70.40
2019-06-01T04:04:45.955Z,69.50
2019-06-01T04:06:23.104Z,69.40
2019-06-01T04:07:59.492Z,69.30
2019-06-01T04:09:35.009Z,69.20
2019-06-01T04:11:11.775Z,68.90
2019-06-01T04:12:47.792Z,68.70
2019-06-01T04:14:24.155Z,68.50
2019-06-01T04:15:59.672Z,68.30
2019-06-01T04:17:35.968Z,68.00
2019-06-01T04:19:12.226Z,67.90
2019-06-01T04:20:48.547Z,67.80
2019-06-01T04:22:25.718Z,67.60
2019-06-01T04:24:02.002Z,67.30
2019-06-01T04:25:37.894Z,67.50
2019-06-01T04:27:17.666Z,67.10
2019-06-01T04:28:55.131Z,67.00
2019-06-01T04:30:31.980Z,66.70
2019-06-01T04:32:08.645Z,66.80
2019-06-01T04:33:45.003Z,66.60
2019-06-01T04:35:21.767Z,66.20
2019-06-01T04:36:58.065Z,66.00
2019-06-01T04:38:33.578Z,65.60
2019-06-01T04:40:10.024Z,65.50
2019-06-01T04:41:45.539Z,65.10
2019-06-01T04:43:22.734Z,64.90
2019-06-01T04:44:58.256Z,64.60
2019-06-01T04:46:34.551Z,64.00
2019-06-01T04:48:10.627Z,63.70
2019-06-01T04:49:48.023Z,63.70
2019-06-01T04:51:23.540Z,63.40
2019-06-01T04:53:00.131Z,63.20
2019-06-01T04:54:35.733Z,63.00
2019-06-01T04:56:13.080Z,63.40
2019-06-01T04:57:48.728Z,62.20
2019-06-01T04:59:25.011Z,61.90
2019-06-01T05:01:00.525Z,61.70
2019-06-01T05:02:36.845Z,61.00
2019-06-01T05:04:13.295Z,60.60
2019-06-01T05:05:49.899Z,60.70
2019-06-01T05:07:25.546Z,59.90
2019-06-01T05:09:02.086Z,59.70
2019-06-01T05:10:37.674Z,59.30
2019-06-01T05:12:14.139Z,59.10
2019-06-01T05:13:49.659Z,59.00
2019-06-01T05:15:26.206Z,58.60
2019-06-01T05:17:02.003Z,58.00
2019-06-01T05:18:43.472Z,58.10
2019-06-01T05:20:20.922Z,58.00
2019-06-01T05:21:56.425Z,57.90
2019-06-01T05:23:32.729Z,57.60
2019-06-01T05:25:09.112Z,56.90
2019-06-01T05:26:45.504Z,56.70
2019-06-01T05:28:21.026Z,56.50
2019-06-01T05:29:57.379Z,56.10
2019-06-01T05:31:32.879Z,56.10
2019-06-01T05:33:26.562Z,55.70
2019-06-01T05:34:46.657Z,55.40
2019-06-01T05:36:22.951Z,55.00
2019-06-01T05:37:58.477Z,54.50
2019-06-01T05:39:34.780Z,54.10
2019-06-01T05:41:11.949Z,54.20
2019-06-01T05:42:48.954Z,54.10
2019-06-01T05:44:24.495Z,54.00
2019-06-01T05:46:00.769Z,53.60
2019-06-01T05:47:36.307Z,53.20
2019-06-01T05:49:13.254Z,53.60
2019-06-01T05:50:49.883Z,53.40
2019-06-01T05:52:26.181Z,52.80
2019-06-01T05:54:02.725Z,52.10
2019-06-01T05:55:39.953Z,52.50
2019-06-01T05:57:16.718Z,52.50
2019-06-01T05:58:53.126Z,52.50
2019-06-01T06:00:43.095Z,52.40
2019-06-01T06:02:19.611Z,51.30
2019-06-01T06:03:57.878Z,51.10
2019-06-01T06:05:34.305Z,50.20
2019-06-01T06:07:10.796Z,50.40
2019-06-01T06:08:47.107Z,49.60
2019-06-01T06:10:22.623Z,49.80
2019-06-01T06:11:58.944Z,49.40
2019-06-01T06:13:34.889Z,49.40
2019-06-01T06:15:13.476Z,49.00
2019-06-01T06:16:49.218Z,49.40
2019-06-01T06:18:25.516Z,48.60
2019-06-01T06:20:01.056Z,48.10
2019-06-01T06:21:37.588Z,48.20
2019-06-01T06:23:14.033Z,47.60
2019-06-01T06:24:50.505Z,47.70
2019-06-01T06:26:26.683Z,47.80
2019-06-01T06:28:02.970Z,47.40
2019-06-01T06:29:38.514Z,47.40
2019-06-01T06:31:15.070Z,47.10
2019-06-01T06:32:50.748Z,46.90
2019-06-01T06:34:27.405Z,47.20
2019-06-01T06:36:02.963Z,47.00
2019-06-01T06:37:42.249Z,46.10
2019-06-01T06:39:17.868Z,46.00
2019-06-01T06:40:54.671Z,45.90
2019-06-01T06:42:30.515Z,45.50
2019-06-01T06:44:06.895Z,45.20
2019-06-01T06:45:42.412Z,45.00
2019-06-01T06:47:18.830Z,45.00
2019-06-01T06:48:54.375Z,44.60
2019-06-01T06:50:31.112Z,44.60
2019-06-01T06:52:06.645Z,44.40
2019-06-01T06:53:42.940Z,45.00
2019-06-01T06:55:18.482Z,44.50
2019-06-01T06:56:54.776Z,44.80
2019-06-01T06:58:31.151Z,43.80
2019-06-01T07:00:09.158Z,43.70
2019-06-01T07:01:44.668Z,44.40
2019-06-01T07:03:21.135Z,43.60
2019-06-01T07:04:56.658Z,43.60
2019-06-01T07:06:32.956Z,43.20
2019-06-01T07:08:08.483Z,42.50
2019-06-01T07:09:44.826Z,42.30
2019-06-01T07:11:21.197Z,42.10
2019-06-01T07:12:57.683Z,41.40
2019-06-01T07:14:33.225Z,41.40
2019-06-01T07:16:09.533Z,41.30
2019-06-01T07:17:45.149Z,41.00
2019-06-01T07:19:21.703Z,40.50
2019-06-01T07:20:57.516Z,40.40
2019-06-01T07:22:33.877Z,39.40
2019-06-01T07:24:09.380Z,38.60
2019-06-01T07:25:45.776Z,37.80
2019-06-01T07:27:22.029Z,37.60
2019-06-01T07:28:58.373Z,37.80
2019-06-01T07:30:49.872Z,37.90
2019-06-01T07:32:15.013Z,37.30
2019-06-01T07:33:50.523Z,37.20
2019-06-01T07:35:28.368Z,37.40
2019-06-01T07:37:04.079Z,37.10
2019-06-01T07:38:40.383Z,37.50
2019-06-01T07:40:18.030Z,37.40
2019-06-01T07:41:54.375Z,37.30
2019-06-01T07:43:29.941Z,37.40
2019-06-01T07:45:08.577Z,37.20
2019-06-01T07:46:44.092Z,37.50
2019-06-01T07:48:20.952Z,37.60
2019-06-01T07:49:56.584Z,37.60
2019-06-01T07:51:32.898Z,37.70
2019-06-01T07:53:08.405Z,37.70
2019-06-01T07:54:45.871Z,37.30
2019-06-01T07:56:22.588Z,38.20
2019-06-01T07:57:59.023Z,37.50
2019-06-01T07:59:34.614Z,37.80
2019-06-01T08:01:11.268Z,38.00
2019-06-01T08:02:46.964Z,38.20
2019-06-01T08:04:24.701Z,38.00
2019-06-01T08:06:00.890Z,38.80
2019-06-01T08:07:37.200Z,38.90
2019-06-01T08:09:12.719Z,38.60
2019-06-01T08:10:49.035Z,38.50
2019-06-01T08:12:25.464Z,38.30
2019-06-01T08:14:01.850Z,38.50
2019-06-01T08:15:37.410Z,38.60
2019-06-01T08:17:14.032Z,37.80
2019-06-01T08:18:53.104Z,38.00
2019-06-01T08:20:30.336Z,38.40
2019-06-01T08:22:07.052Z,38.50
2019-06-01T08:23:43.384Z,38.30
2019-06-01T08:25:18.906Z,37.90
2019-06-01T08:26:55.245Z,37.60
2019-06-01T08:28:30.965Z,37.50
2019-06-01T08:30:09.528Z,37.70
2019-06-01T08:31:45.353Z,37.50
2019-06-01T08:33:24.881Z,37.60
2019-06-01T08:35:08.683Z,36.80
2019-06-01T08:36:37.298Z,36.70
2019-06-01T08:38:13.173Z,36.20
2019-06-01T08:39:49.487Z,35.70
2019-06-01T08:41:25.584Z,35.10
2019-06-01T08:43:01.942Z,34.80
2019-06-01T08:44:37.456Z,35.10
2019-06-01T08:46:13.751Z,35.20
2019-06-01T08:47:49.286Z,35.40
2019-06-01T08:49:25.982Z,35.70
2019-06-01T08:51:01.534Z,35.90
2019-06-01T08:52:37.831Z,35.80
2019-06-01T08:54:13.344Z,35.90
2019-06-01T08:55:49.646Z,35.70
2019-06-01T08:57:26.117Z,35.00
2019-06-01T08:59:02.557Z,35.20
2019-06-01T09:00:38.111Z,35.00
2019-06-01T09:02:14.434Z,34.90
2019-06-01T09:03:49.952Z,34.50
2019-06-01T09:05:27.972Z,34.00
2019-06-01T09:07:03.727Z,34.20
2019-06-01T09:08:40.019Z,34.50
2019-06-01T09:10:15.678Z,34.30
2019-06-01T09:11:51.988Z,34.70
2019-06-01T09:13:27.505Z,34.40
2019-06-01T09:15:04.106Z,34.30
2019-06-01T09:16:40.020Z,33.80
2019-06-01T09:18:16.322Z,33.20
2019-06-01T09:19:52.122Z,32.80
2019-06-01T09:21:29.416Z,32.60
2019-06-01T09:23:05.351Z,31.70
2019-06-01T09:24:41.924Z,31.90
2019-06-01T09:26:17.451Z,30.50
2019-06-01T09:27:53.760Z,30.90
2019-06-01T09:29:29.977Z,31.80
2019-06-01T09:31:06.454Z,31.10
2019-06-01T09:32:42.439Z,30.00
2019-06-01T09:34:18.754Z,30.40
2019-06-01T09:35:56.338Z,30.90
2019-06-01T09:37:35.020Z,31.80
2019-06-01T09:39:10.622Z,31.70
2019-06-01T09:40:46.939Z,31.80
2019-06-01T09:42:22.777Z,32.00
2019-06-01T09:43:59.087Z,32.10
2019-06-01T09:45:34.629Z,32.20
2019-06-01T09:47:10.908Z,31.80
2019-06-01T09:48:46.430Z,31.80
2019-06-01T09:50:22.721Z,31.20
2019-06-01T09:51:58.236Z,31.10
2019-06-01T09:53:35.971Z,31.50
2019-06-01T09:55:11.925Z,31.50
2019-06-01T09:56:48.229Z,31.80
2019-06-01T09:58:23.756Z,31.80
2019-06-01T10:00:00.101Z,31.30
2019-06-01T10:01:36.698Z,31.40
2019-06-01T10:03:13.014Z,31.70
2019-06-01T10:04:48.512Z,32.60
2019-06-01T10:06:24.808Z,32.50
2019-06-01T10:08:00.429Z,32.10
2019-06-01T10:09:37.749Z,31.70
2019-06-01T10:11:13.276Z,31.30
2019-06-01T10:12:49.583Z,31.10
2019-06-01T10:14:25.098Z,31.40
2019-06-01T10:16:01.744Z,32.00
2019-06-01T10:17:37.344Z,31.60
2019-06-01T10:19:13.653Z,32.20
2019-06-01T10:20:49.193Z,32.40
2019-06-01T10:22:25.488Z,32.10
2019-06-01T10:24:01.026Z,32.00
2019-06-01T10:25:38.534Z,32.10
2019-06-01T10:27:14.120Z,32.20
2019-06-01T10:28:50.434Z,32.00
2019-06-01T10:30:25.988Z,31.90
2019-06-01T10:32:02.274Z,32.00
2019-06-01T10:33:38.986Z,31.60
2019-06-01T10:35:17.376Z,31.50
2019-06-01T10:36:52.897Z,31.90
2019-06-01T10:38:29.220Z,31.90
2019-06-01T10:40:08.936Z,32.40
2019-06-01T10:41:46.475Z,32.70
2019-06-01T10:43:22.001Z,32.30
2019-06-01T10:44:58.301Z,32.40
2019-06-01T10:46:33.962Z,32.20
2019-06-01T10:48:10.326Z,32.00
2019-06-01T10:49:45.957Z,31.80
2019-06-01T10:51:22.266Z,32.00
2019-06-01T10:52:57.795Z,32.00
2019-06-01T10:54:34.339Z,32.10
2019-06-01T10:56:09.899Z,32.40
2019-06-01T10:57:47.435Z,32.90
2019-06-01T10:59:22.956Z,33.30
2019-06-01T11:00:59.271Z,33.60
2019-06-01T11:02:34.872Z,33.50
2019-06-01T11:04:11.161Z,34.00
2019-06-01T11:05:46.679Z,34.60
2019-06-01T11:07:23.282Z,33.80
2019-06-01T11:08:58.860Z,34.20
2019-06-01T11:10:35.155Z,34.30
2019-06-01T11:12:10.678Z,33.90
2019-06-01T11:13:47.959Z,33.90
2019-06-01T11:15:23.471Z,33.80
2019-06-01T11:17:00.357Z,34.10
2019-06-01T11:18:37.346Z,34.50
2019-06-01T11:20:14.075Z,34.90
2019-06-01T11:21:49.842Z,34.80
2019-06-01T11:23:26.152Z,34.70
2019-06-01T11:25:01.701Z,35.10
2019-06-01T11:26:39.711Z,35.20
2019-06-01T11:28:16.283Z,35.10
2019-06-01T11:29:52.619Z,35.00
2019-06-01T11:31:28.130Z,35.30
2019-06-01T11:33:04.674Z,35.20
2019-06-01T11:34:40.332Z,34.90
2019-06-01T11:36:17.155Z,34.60
2019-06-01T11:37:52.668Z,34.30
2019-06-01T11:39:29.049Z,34.80
2019-06-01T11:41:04.565Z,35.00
2019-06-01T11:42:41.037Z,34.90
2019-06-01T11:44:16.555Z,35.00
2019-06-01T11:45:52.860Z,35.20
2019-06-01T11:47:28.531Z,34.90
2019-06-01T11:49:04.843Z,35.50
2019-06-01T11:50:41.204Z,35.10
2019-06-01T11:52:17.529Z,35.20
2019-06-01T11:53:53.311Z,35.50
2019-06-01T11:55:29.872Z,35.60
2019-06-01T11:57:05.382Z,34.90
2019-06-01T11:58:41.679Z,34.80
2019-06-01T12:00:19.204Z,35.20
2019-06-01T12:01:55.851Z,35.30
2019-06-01T12:03:31.378Z,34.80
2019-06-01T12:05:09.988Z,34.50
2019-06-01T12:06:46.738Z,34.70
2019-06-01T12:08:23.044Z,35.00
2019-06-01T12:09:58.568Z,34.80
2019-06-01T12:11:35.726Z,35.10
2019-06-01T12:13:11.317Z,35.00
2019-06-01T12:14:47.772Z,33.70
2019-06-01T12:16:23.687Z,33.40
2019-06-01T12:17:59.995Z,33.40
2019-06-01T12:19:36.527Z,33.00
2019-06-01T12:21:12.896Z,32.80
2019-06-01T12:22:48.440Z,31.80
2019-06-01T12:24:25.845Z,32.10
2019-06-01T12:26:01.444Z,32.70
2019-06-01T12:27:39.581Z,33.00
2019-06-01T12:29:15.585Z,32.60
2019-06-01T12:30:51.893Z,31.70
2019-06-01T12:32:27.425Z,32.60
2019-06-01T12:34:04.040Z,32.70
2019-06-01T12:35:39.871Z,33.00
2019-06-01T12:37:34.131Z,32.00
2019-06-01T12:38:53.938Z,31.40
2019-06-01T12:40:30.245Z,31.20
2019-06-01T12:42:05.851Z,31.60
2019-06-01T12:43:43.584Z,31.70
2019-06-01T12:45:23.128Z,31.60
2019-06-01T12:46:59.232Z,31.50
2019-06-01T12:48:34.754Z,31.60
2019-06-01T12:50:11.093Z,31.50
2019-06-01T12:51:47.057Z,31.50
2019-06-01T12:53:23.483Z,31.30
2019-06-01T12:54:59.001Z,31.50
2019-06-01T12:56:35.647Z,31.20
2019-06-01T12:58:11.169Z,31.40
2019-06-01T12:59:47.680Z,31.30
2019-06-01T13:01:23.153Z,31.10
2019-06-01T13:03:07.071Z,30.50
2019-06-01T13:04:36.684Z,31.00
2019-06-01T13:06:13.009Z,30.70
2019-06-01T13:07:58.623Z,30.10
2019-06-01T13:09:28.091Z,30.10
2019-06-01T13:11:03.601Z,30.20
2019-06-01T13:12:41.076Z,30.10
2019-06-01T13:14:16.642Z,30.60
2019-06-01T13:15:52.947Z,30.70
2019-06-01T13:17:28.469Z,30.00
2019-06-01T13:19:05.041Z,29.90
2019-06-01T13:20:41.430Z,29.60
2019-06-01T13:22:17.833Z,29.80
2019-06-01T13:23:53.360Z,29.60
2019-06-01T13:25:29.659Z,29.80
2019-06-01T13:27:05.526Z,29.90
2019-06-01T13:28:41.814Z,29.90
2019-06-01T13:30:17.401Z,29.50
2019-06-01T13:31:53.700Z,29.30
2019-06-01T13:33:29.523Z,29.20
2019-06-01T13:35:10.367Z,29.40
2019-06-01T13:36:46.549Z,29.80
2019-06-01T13:38:22.970Z,29.40
2019-06-01T13:39:58.530Z,29.20
2019-06-01T13:41:34.813Z,29.40
2019-06-01T13:43:10.333Z,29.50
2019-06-01T13:44:47.372Z,29.20
2019-06-01T13:46:22.945Z,29.40
2019-06-01T13:47:59.230Z,29.20
2019-06-01T13:49:34.744Z,29.30
2019-06-01T13:51:11.075Z,29.50
2019-06-01T13:52:47.858Z,29.40
2019-06-01T13:54:25.410Z,29.40
2019-06-01T13:56:00.962Z,29.60
2019-06-01T13:57:39.634Z,29.90
2019-06-01T13:59:14.467Z,30.00
2019-06-01T14:00:51.631Z,30.30
2019-06-01T14:02:28.005Z,30.00
2019-06-01T14:04:04.316Z,30.00
2019-06-01T14:05:39.835Z,30.50
2019-06-01T14:07:16.140Z,30.80
2019-06-01T14:08:53.175Z,30.60
2019-06-01T14:10:29.566Z,31.20
2019-06-01T14:12:05.505Z,30.50
2019-06-01T14:13:41.800Z,30.50
2019-06-01T14:15:24.064Z,30.60
2019-06-01T14:17:00.337Z,30.80
2019-06-01T14:18:35.957Z,31.20
2019-06-01T14:20:12.499Z,31.00
2019-06-01T14:21:48.045Z,31.30
2019-06-01T14:23:24.431Z,31.70
2019-06-01T14:25:12.765Z,31.60
2019-06-01T14:26:37.931Z,31.80
2019-06-01T14:28:13.442Z,31.30
2019-06-01T14:29:50.247Z,31.70
2019-06-01T14:31:25.967Z,31.40
2019-06-01T14:33:02.285Z,31.60
2019-06-01T14:34:37.839Z,32.20
2019-06-01T14:36:14.124Z,32.40
2019-06-01T14:37:51.238Z,32.70
2019-06-01T14:39:27.705Z,32.70
2019-06-01T14:41:03.266Z,32.90
2019-06-01T14:42:39.619Z,32.90
2019-06-01T14:44:15.155Z,33.10
2019-06-01T14:45:51.662Z,33.70
2019-06-01T14:47:27.567Z,33.70
2019-06-01T14:49:04.138Z,33.30
2019-06-01T14:50:39.977Z,33.40
2019-06-01T14:52:16.287Z,33.80
2019-06-01T14:53:51.795Z,33.90
2019-06-01T14:55:28.104Z,33.60
2019-06-01T14:57:03.907Z,34.00
2019-06-01T14:58:40.342Z,34.30
2019-06-01T15:00:16.399Z,33.90
2019-06-01T15:01:52.693Z,33.90
2019-06-01T15:03:28.216Z,33.90
2019-06-01T15:05:06.758Z,34.10
2019-06-01T15:06:42.949Z,34.20
2019-06-01T15:08:20.880Z,34.30
2019-06-01T15:09:56.699Z,34.20
2019-06-01T15:11:33.465Z,34.60
2019-06-01T15:13:08.984Z,34.60
2019-06-01T15:14:45.277Z,35.20
2019-06-01T15:16:20.867Z,34.60
2019-06-01T15:17:57.582Z,35.00
2019-06-01T15:19:33.498Z,34.90
2019-06-01T15:21:09.814Z,34.50
2019-06-01T15:22:45.335Z,34.40
2019-06-01T15:24:21.639Z,34.80
2019-06-01T15:25:58.136Z,35.00
2019-06-01T15:27:34.773Z,35.10
2019-06-01T15:29:10.559Z,34.90
2019-06-01T15:30:48.624Z,34.90
2019-06-01T15:32:26.752Z,35.40
2019-06-01T15:34:04.297Z,35.30
2019-06-01T15:35:39.821Z,35.30
2019-06-01T15:37:16.127Z,34.70
2019-06-01T15:38:51.892Z,34.20
2019-06-01T15:40:28.622Z,34.40
2019-06-01T15:42:04.228Z,34.20
2019-06-01T15:43:40.537Z,34.40
2019-06-01T15:45:16.491Z,34.60
2019-06-01T15:46:53.678Z,34.90
2019-06-01T15:48:29.418Z,35.00
2019-06-01T15:50:11.138Z,35.00
2019-06-01T15:51:47.765Z,35.10
2019-06-01T15:53:23.299Z,35.00
2019-06-01T15:55:00.495Z,34.60
2019-06-01T15:56:37.123Z,35.30
2019-06-01T15:58:13.445Z,35.60
2019-06-01T15:59:48.960Z,35.70
2019-06-01T16:01:26.429Z,35.70
2019-06-01T16:03:03.164Z,36.00
2019-06-01T16:04:39.517Z,36.00
2019-06-01T16:06:15.024Z,36.10
2019-06-01T16:07:51.331Z,36.10
2019-06-01T16:09:41.593Z,35.80
2019-06-01T16:11:06.508Z,35.60
2019-06-01T16:12:42.254Z,35.40
2019-06-01T16:14:18.583Z,35.40
2019-06-01T16:15:55.161Z,35.40
2019-06-01T16:17:31.980Z,35.60
2019-06-01T16:19:08.126Z,35.60
2019-06-01T16:20:45.492Z,35.70
2019-06-01T16:22:21.045Z,35.70
2019-06-01T16:23:58.318Z,35.70
2019-06-01T16:25:33.838Z,35.50
2019-06-01T16:27:10.136Z,35.20
2019-06-01T16:28:45.699Z,35.30
2019-06-01T16:30:22.435Z,35.20
2019-06-01T16:31:58.659Z,35.30
2019-06-01T16:33:34.966Z,35.40
2019-06-01T16:35:10.648Z,35.30
2019-06-01T16:36:46.938Z,35.50
2019-06-01T16:38:22.491Z,35.50
2019-06-01T16:40:04.398Z,35.80
2019-06-01T16:41:36.037Z,35.90
2019-06-01T16:43:12.335Z,36.20
2019-06-01T16:44:48.119Z,36.20
2019-06-01T16:46:24.406Z,36.10
2019-06-01T16:48:00.152Z,36.00
2019-06-01T16:49:36.468Z,36.00
2019-06-01T16:51:11.980Z,35.90
2019-06-01T16:52:48.300Z,35.90
2019-06-01T16:54:25.176Z,35.90
2019-06-01T16:56:02.015Z,35.70
2019-06-01T16:57:37.661Z,35.50
2019-06-01T16:59:13.965Z,35.60
2019-06-01T17:00:49.663Z,35.40
2019-06-01T17:02:25.967Z,36.10
2019-06-01T17:04:02.735Z,35.70
2019-06-01T17:05:40.111Z,35.80
2019-06-01T17:07:17.411Z,35.80
2019-06-01T17:08:53.719Z,36.00
2019-06-01T17:10:29.673Z,36.90
2019-06-01T17:12:07.181Z,36.40
2019-06-01T17:13:42.818Z,36.30
2019-06-01T17:15:19.369Z,36.20
2019-06-01T17:16:55.188Z,36.30
2019-06-01T17:18:31.512Z,36.30
2019-06-01T17:20:28.001Z,36.30
2019-06-01T17:22:05.505Z,36.10
2019-06-01T17:23:41.275Z,36.20
2019-06-01T17:25:17.675Z,36.30
2019-06-01T17:26:53.277Z,36.20
2019-06-01T17:28:29.698Z,36.20
2019-06-01T17:30:09.895Z,36.30
2019-06-01T17:31:54.038Z,36.40
2019-06-01T17:33:21.816Z,36.50
2019-06-01T17:34:58.594Z,36.50
2019-06-01T17:36:34.106Z,36.70
2019-06-01T17:38:12.216Z,36.60
2019-06-01T17:39:47.834Z,36.50
2019-06-01T17:41:24.126Z,36.60
2019-06-01T17:43:01.214Z,36.60
2019-06-01T17:44:37.762Z,36.70
2019-06-01T17:46:13.288Z,36.80
2019-06-01T17:47:49.590Z,36.90
2019-06-01T17:49:25.139Z,37.00
2019-06-01T17:51:04.391Z,37.00
2019-06-01T17:52:40.376Z,37.00
2019-06-01T17:54:16.837Z,37.20
2019-06-01T17:55:52.363Z,37.60
2019-06-01T17:57:28.661Z,37.30
2019-06-01T17:59:05.362Z,37.20
2019-06-01T18:00:42.387Z,37.10
2019-06-01T18:02:18.109Z,37.20
2019-06-01T18:03:54.446Z,37.20
2019-06-01T18:05:30.315Z,37.20
2019-06-01T18:07:07.903Z,37.10
2019-06-01T18:08:43.612Z,37.10
2019-06-01T18:10:20.102Z,37.30
2019-06-01T18:11:55.656Z,37.40
2019-06-01T18:13:31.958Z,37.50
2019-06-01T18:15:08.387Z,37.60
2019-06-01T18:16:45.663Z,37.60
2019-06-01T18:18:21.182Z,37.70
2019-06-01T18:19:57.508Z,37.80
2019-06-01T18:21:33.535Z,37.90
2019-06-01T18:23:11.487Z,38.00
2019-06-01T18:24:47.112Z,38.00
2019-06-01T18:26:25.076Z,38.10
2019-06-01T18:28:00.751Z,38.20
2019-06-01T18:29:39.283Z,38.30
2019-06-01T18:31:14.424Z,38.50
2019-06-01T18:32:51.262Z,38.60
2019-06-01T18:34:26.784Z,38.60
2019-06-01T18:36:03.441Z,38.90
2019-06-01T18:37:38.974Z,38.90
2019-06-01T18:39:15.266Z,39.10
2019-06-01T18:40:50.854Z,39.10
2019-06-01T18:42:30.192Z,39.20
2019-06-01T18:44:07.691Z,39.10
2019-06-01T18:45:45.354Z,39.40
2019-06-01T18:47:31.868Z,39.50
2019-06-01T18:48:58.883Z,39.70
2019-06-01T18:50:34.930Z,39.70
2019-06-01T18:52:11.312Z,39.90
2019-06-01T18:53:46.828Z,40.00
2019-06-01T18:55:26.632Z,39.90
2019-06-01T18:57:09.709Z,40.10
2019-06-01T18:58:38.402Z,40.30
2019-06-01T19:00:16.126Z,40.30
2019-06-01T19:01:52.431Z,40.40
2019-06-01T19:03:28.143Z,40.60
2019-06-01T19:05:06.972Z,41.40
2019-06-01T19:06:42.733Z,40.90
2019-06-01T19:08:19.034Z,41.30
2019-06-01T19:09:54.543Z,41.40
2019-06-01T19:11:35.954Z,41.40
2019-06-01T19:13:08.146Z,41.60
2019-06-01T19:14:44.414Z,41.80
2019-06-01T19:16:19.931Z,41.90
2019-06-01T19:17:56.236Z,42.10
2019-06-01T19:19:31.753Z,42.10
2019-06-01T19:21:09.301Z,42.20
2019-06-01T19:22:44.918Z,42.30
2019-06-01T19:24:21.194Z,42.40
2019-06-01T19:25:56.960Z,42.50
2019-06-01T19:27:33.262Z,42.70
2019-06-01T19:29:09.009Z,42.80
2019-06-01T19:30:46.496Z,42.90
2019-06-01T19:32:22.012Z,43.20
2019-06-01T19:33:58.486Z,43.10
2019-06-01T19:35:34.243Z,43.30
2019-06-01T19:37:10.983Z,43.60
2019-06-01T19:38:46.878Z,43.70
2019-06-01T19:40:27.889Z,44.30
2019-06-01T19:42:03.427Z,44.10
2019-06-01T19:43:40.885Z,44.10
2019-06-01T19:45:27.501Z,44.20
2019-06-01T19:46:55.353Z,44.30
2019-06-01T19:48:31.657Z,44.40
2019-06-01T19:50:10.692Z,44.50
2019-06-01T19:51:47.020Z,44.50
2019-06-01T19:53:22.854Z,44.50
2019-06-01T19:54:59.150Z,44.50
2019-06-01T19:56:34.678Z,44.70
2019-06-01T19:58:12.130Z,44.60
2019-06-01T19:59:47.769Z,44.80
2019-06-01T20:01:24.049Z,45.00
2019-06-01T20:02:59.984Z,45.30
2019-06-01T20:04:36.257Z,45.50
2019-06-01T20:06:12.840Z,45.60
2019-06-01T20:07:49.261Z,45.70
2019-06-01T20:09:24.789Z,45.70
2019-06-01T20:11:01.075Z,45.80
2019-06-01T20:12:36.603Z,46.10
2019-06-01T20:14:13.935Z,46.20
2019-06-01T20:15:49.673Z,46.40
2019-06-01T20:17:26.725Z,46.50
2019-06-01T20:19:02.234Z,46.40
2019-06-01T20:20:38.624Z,46.70
2019-06-01T20:22:14.889Z,46.80
2019-06-01T20:23:51.222Z,46.80
2019-06-01T20:25:26.737Z,46.90
2019-06-01T20:27:03.043Z,47.10
2019-06-01T20:28:38.665Z,47.20
2019-06-01T20:30:15.846Z,47.40
2019-06-01T20:31:51.477Z,47.60
2019-06-01T20:33:27.842Z,47.90
2019-06-01T20:35:04.306Z,47.90
2019-06-01T20:36:40.970Z,48.40
2019-06-01T20:38:16.745Z,48.60
2019-06-01T20:39:52.993Z,48.50
2019-06-01T20:41:28.841Z,49.30
2019-06-01T20:43:05.147Z,48.80